Snake River, Canada
Current Conditions -  °F | °C
As of 11:00 AM on Monday 26 Jan 2015 (Local Time) from CYYE Reporting Station
Scattered Clouds Scattered Clouds  
Wind Chill: -14°   Ceiling: Unl
Heat Index:   Visibility: 30mi
Dew Point: -2°   Wind: 13mph
Humidity: 78%   Direction: 320°NW
Pressure: 29.86"   Gusts: NA
Location:  59.04°N, 122.45°W
Report Text: CYYE 261800Z 32011KT 30SM FEW050 SCT070 M16/M19 A2986 RMK SC2AC1 SLP150
Loading
Personal Weather Stations






























Interactive Weather Map New forecast layout! Learn more

10-Day Weather Forecast

Advertisements
Track Severe Weather on mobile